createdAt,value
2022-08-24T00:00:46.704Z,21.83
2022-08-24T00:03:15.172Z,21.40
2022-08-24T00:05:43.762Z,19.35
2022-08-24T00:08:12.258Z,19.35
2022-08-24T00:10:40.828Z,16.75
2022-08-24T00:13:09.369Z,18.52
2022-08-24T00:15:39.255Z,21.58
2022-08-24T00:18:07.821Z,21.40
2022-08-24T00:20:36.494Z,18.38
2022-08-24T00:23:05.572Z,21.35
2022-08-24T00:25:34.804Z,24.33
2022-08-24T00:28:03.304Z,20.38
2022-08-24T00:30:32.048Z,25.25
2022-08-24T00:33:02.752Z,19.25
2022-08-24T00:35:31.453Z,22.02
2022-08-24T00:37:59.879Z,21.33
2022-08-24T00:40:39.324Z,18.83
2022-08-24T00:43:10.819Z,19.70
2022-08-24T00:45:45.993Z,20.48
2022-08-24T00:48:20.606Z,21.70
2022-08-24T00:50:55.380Z,21.50
2022-08-24T00:53:27.181Z,22.88
2022-08-24T00:56:02.819Z,21.38
2022-08-24T00:58:37.700Z,22.98
2022-08-24T01:01:09.231Z,21.50
2022-08-24T01:03:39.778Z,20.67
2022-08-24T01:06:08.745Z,27.42
2022-08-24T01:08:38.118Z,29.95
2022-08-24T01:11:12.494Z,26.85
2022-08-24T01:13:43.411Z,29.52
2022-08-24T01:16:13.413Z,27.90
2022-08-24T01:18:52.498Z,24.02
2022-08-24T01:21:24.877Z,22.73
2022-08-24T01:23:57.409Z,23.20
2022-08-24T01:26:32.564Z,25.15
2022-08-24T01:29:04.923Z,26.27
2022-08-24T01:31:35.156Z,22.05
2022-08-24T01:34:04.257Z,23.30
2022-08-24T01:36:37.476Z,22.65
2022-08-24T01:39:12.376Z,28.10
2022-08-24T01:41:40.845Z,25.10
2022-08-24T01:44:09.585Z,26.05
2022-08-24T01:46:38.573Z,31.13
2022-08-24T01:49:07.213Z,23.48
2022-08-24T01:51:36.008Z,23.42
2022-08-24T01:54:07.181Z,34.75
2022-08-24T01:56:37.943Z,39.05
2022-08-24T01:59:08.025Z,26.08
2022-08-24T02:01:40.555Z,23.42
2022-08-24T02:04:10.875Z,23.25
2022-08-24T02:06:47.166Z,21.25
2022-08-24T02:09:18.772Z,27.08
2022-08-24T02:11:49.163Z,22.88
2022-08-24T02:14:19.409Z,22.33
2022-08-24T02:16:48.779Z,20.83
2022-08-24T02:21:53.069Z,20.23
2022-08-24T02:24:23.729Z,18.40
2022-08-24T02:26:52.386Z,20.13
2022-08-24T02:29:20.959Z,16.65
2022-08-24T02:31:49.588Z,18.33
2022-08-24T02:34:18.478Z,18.45
2022-08-24T02:36:47.447Z,18.08
2022-08-24T02:39:15.988Z,19.23
2022-08-24T02:41:50.017Z,21.05
2022-08-24T02:44:18.720Z,19.73
2022-08-24T02:46:47.522Z,17.25
2022-08-24T02:49:16.310Z,20.48
2022-08-24T02:51:47.593Z,19.60
2022-08-24T02:54:20.084Z,19.48
2022-08-24T02:56:53.243Z,20.35
2022-08-24T02:59:23.329Z,22.77
2022-08-24T03:01:52.288Z,23.77
2022-08-24T03:04:22.694Z,21.80
2022-08-24T03:06:51.351Z,22.38
2022-08-24T03:09:20.397Z,22.45
2022-08-24T03:11:53.854Z,23.35
2022-08-24T03:14:22.342Z,30.10
2022-08-24T03:16:50.961Z,24.70
2022-08-24T03:19:20.416Z,24.67
2022-08-24T03:21:49.012Z,23.40
2022-08-24T03:24:17.592Z,24.38
2022-08-24T03:26:46.718Z,25.42
2022-08-24T03:29:17.093Z,24.15
2022-08-24T03:31:45.876Z,28.45
2022-08-24T03:34:14.434Z,21.52
2022-08-24T03:36:46.670Z,31.30
2022-08-24T03:39:17.591Z,27.63
2022-08-24T03:41:48.174Z,29.45
2022-08-24T03:44:22.546Z,26.02
2022-08-24T03:46:51.932Z,25.42
2022-08-24T03:49:22.032Z,27.70
2022-08-24T03:51:51.740Z,32.20
2022-08-24T03:54:23.539Z,33.47
2022-08-24T03:56:53.131Z,28.27
2022-08-24T03:59:24.298Z,29.50
2022-08-24T04:01:56.214Z,28.48
2022-08-24T04:04:26.726Z,29.98
2022-08-24T04:06:55.224Z,24.45
2022-08-24T04:09:25.263Z,32.75
2022-08-24T04:11:53.888Z,29.10
2022-08-24T04:14:27.968Z,28.42
2022-08-24T04:17:03.223Z,30.35
2022-08-24T04:19:36.184Z,27.50
2022-08-24T04:22:05.135Z,28.83
2022-08-24T04:24:33.617Z,25.25
2022-08-24T04:27:02.313Z,23.42
2022-08-24T04:29:32.212Z,27.60
2022-08-24T04:32:00.667Z,21.13
2022-08-24T04:34:30.832Z,20.23
2022-08-24T04:36:59.935Z,25.08
2022-08-24T04:39:29.628Z,26.10
2022-08-24T04:42:17.773Z,30.52
2022-08-24T04:44:48.181Z,22.83
2022-08-24T04:47:17.239Z,25.65
2022-08-24T04:49:45.734Z,28.30
2022-08-24T04:52:14.753Z,25.48
2022-08-24T04:54:44.435Z,21.98
2022-08-24T04:57:19.134Z,22.20
2022-08-24T04:59:50.179Z,18.80
2022-08-24T05:02:18.841Z,22.38
2022-08-24T05:04:50.528Z,20.75
2022-08-24T05:07:19.843Z,17.45
2022-08-24T05:09:49.010Z,16.08
2022-08-24T05:12:21.519Z,20.13
2022-08-24T05:15:02.002Z,17.50
2022-08-24T05:17:36.689Z,17.73
2022-08-24T05:20:06.701Z,16.05
2022-08-24T05:22:35.202Z,17.45
2022-08-24T05:25:06.108Z,17.95
2022-08-24T05:27:36.536Z,19.52
2022-08-24T05:30:08.641Z,17.48
2022-08-24T05:32:37.212Z,13.68
2022-08-24T05:35:06.336Z,13.93
2022-08-24T05:37:36.894Z,18.08
2022-08-24T05:40:26.093Z,20.90
2022-08-24T05:45:32.800Z,14.00
2022-08-24T05:48:01.296Z,17.27
2022-08-24T05:50:55.931Z,16.20
2022-08-24T05:53:26.966Z,14.45
2022-08-24T05:55:55.707Z,18.38
2022-08-24T05:58:30.970Z,20.13
2022-08-24T06:01:10.406Z,18.77
2022-08-24T06:03:40.190Z,16.73
2022-08-24T06:06:11.292Z,17.58
2022-08-24T06:08:42.596Z,22.05
2022-08-24T06:11:13.234Z,14.35
2022-08-24T06:13:42.027Z,16.60
2022-08-24T06:16:22.573Z,14.73
2022-08-24T06:18:53.691Z,20.75
2022-08-24T06:21:28.318Z,17.58
2022-08-24T06:23:58.332Z,16.75
2022-08-24T06:26:49.088Z,27.15
2022-08-24T06:29:20.475Z,18.50
2022-08-24T06:31:56.160Z,19.45
2022-08-24T06:34:26.890Z,17.60
2022-08-24T06:36:55.675Z,18.40
2022-08-24T06:39:27.031Z,18.25
2022-08-24T06:41:57.418Z,11.00
2022-08-24T06:44:33.159Z,14.43
2022-08-24T06:47:21.518Z,14.43
2022-08-24T06:49:55.885Z,11.30
2022-08-24T06:52:24.387Z,10.93
2022-08-24T06:54:53.388Z,20.17
2022-08-24T06:57:21.930Z,14.13
2022-08-24T06:59:50.486Z,16.45
2022-08-24T07:02:22.292Z,17.20
2022-08-24T07:04:51.027Z,14.75
2022-08-24T07:07:39.006Z,12.30
2022-08-24T07:10:09.886Z,14.52
2022-08-24T07:12:39.445Z,13.10
2022-08-24T07:15:09.227Z,14.60
2022-08-24T07:17:48.274Z,14.93
2022-08-24T07:20:17.768Z,13.02
2022-08-24T07:23:21.929Z,12.63
2022-08-24T07:26:08.171Z,10.27
2022-08-24T07:28:39.053Z,13.32
2022-08-24T07:31:10.502Z,8.38
2022-08-24T07:33:46.103Z,14.20
2022-08-24T07:36:20.903Z,14.40
2022-08-24T07:38:53.404Z,12.80
2022-08-24T07:41:51.337Z,12.50
2022-08-24T07:44:16.104Z,8.95
2022-08-24T07:46:45.520Z,14.10
2022-08-24T07:49:36.091Z,9.13
2022-08-24T07:52:06.626Z,8.25
2022-08-24T07:54:35.644Z,10.95
2022-08-24T07:57:06.739Z,7.53
2022-08-24T07:59:36.678Z,9.38
2022-08-24T08:02:06.556Z,8.73
2022-08-24T08:04:36.471Z,6.40
2022-08-24T08:07:06.337Z,8.82
2022-08-24T08:09:39.185Z,5.32
2022-08-24T08:12:12.301Z,6.50
2022-08-24T08:14:53.189Z,6.10
2022-08-24T08:17:21.795Z,6.47
2022-08-24T08:19:51.671Z,8.18
2022-08-24T08:22:37.827Z,6.05
2022-08-24T08:25:45.555Z,9.07
2022-08-24T08:28:25.917Z,5.90
2022-08-24T08:30:56.162Z,5.40
2022-08-24T08:36:06.203Z,4.38
2022-08-24T08:38:35.967Z,6.20
2022-08-24T08:41:35.286Z,5.25
2022-08-24T08:44:23.440Z,6.97
2022-08-24T08:47:03.387Z,6.07
2022-08-24T08:49:56.864Z,4.65
2022-08-24T08:52:48.165Z,6.13
2022-08-24T08:55:29.263Z,6.85
2022-08-24T08:58:25.213Z,4.03
2022-08-24T09:01:05.106Z,7.93
2022-08-24T09:04:01.666Z,4.68
2022-08-24T09:06:57.384Z,4.13
2022-08-24T09:09:52.811Z,8.90
2022-08-24T09:12:30.580Z,6.88
2022-08-24T09:15:11.168Z,4.85
2022-08-24T09:21:05.215Z,5.05
2022-08-24T09:23:41.464Z,4.10
2022-08-24T09:26:22.692Z,5.35
2022-08-24T09:29:02.755Z,6.15
2022-08-24T09:31:57.485Z,6.18
2022-08-24T09:34:36.782Z,4.10
2022-08-24T09:37:34.422Z,6.07
2022-08-24T09:40:18.551Z,7.30
2022-08-24T09:43:42.200Z,6.30
2022-08-24T09:46:29.759Z,9.60
2022-08-24T09:49:30.252Z,5.20
2022-08-24T09:52:49.150Z,5.60
2022-08-24T09:55:49.185Z,4.63
2022-08-24T09:58:32.866Z,3.90
2022-08-24T10:01:10.637Z,5.40
2022-08-24T10:03:54.908Z,6.45
2022-08-24T10:06:33.388Z,3.67
2022-08-24T10:09:24.077Z,9.85
2022-08-24T10:12:01.389Z,3.38
2022-08-24T10:14:46.803Z,4.95
2022-08-24T10:17:23.420Z,6.07
2022-08-24T10:20:06.513Z,8.75
2022-08-24T10:22:53.820Z,4.50
2022-08-24T10:25:32.150Z,4.22
2022-08-24T10:28:22.258Z,3.92
2022-08-24T10:31:06.877Z,5.28
2022-08-24T10:36:53.025Z,5.28
2022-08-24T10:40:06.148Z,7.30
2022-08-24T10:43:32.075Z,7.18
2022-08-24T10:46:23.464Z,13.30
2022-08-24T10:49:32.317Z,4.70
2022-08-24T10:52:28.490Z,5.07
2022-08-24T10:54:57.481Z,4.65
2022-08-24T10:57:36.953Z,7.05
2022-08-24T11:00:10.156Z,16.98
2022-08-24T11:02:42.490Z,5.20
2022-08-24T11:05:14.690Z,7.03
2022-08-24T11:07:58.741Z,8.55
2022-08-24T11:10:31.863Z,4.50
2022-08-24T11:13:20.081Z,2.92
2022-08-24T11:15:51.958Z,3.20
2022-08-24T11:18:23.225Z,5.47
2022-08-24T11:20:54.954Z,4.05
2022-08-24T11:23:29.649Z,5.30
2022-08-24T11:26:04.000Z,3.22
2022-08-24T11:28:35.471Z,3.50
2022-08-24T11:31:04.466Z,5.25
2022-08-24T11:33:37.230Z,2.80
2022-08-24T11:36:21.135Z,7.43
2022-08-24T11:38:50.607Z,5.25
2022-08-24T11:41:23.729Z,5.90
2022-08-24T11:44:03.269Z,4.18
2022-08-24T11:46:38.503Z,5.18
2022-08-24T11:49:20.888Z,4.33
2022-08-24T11:51:55.191Z,7.35
2022-08-24T11:54:31.705Z,3.42
2022-08-24T11:57:09.485Z,6.75
2022-08-24T11:59:48.367Z,4.30
2022-08-24T12:02:24.888Z,3.65
2022-08-24T12:04:59.743Z,3.60
2022-08-24T12:07:50.906Z,4.60
2022-08-24T12:10:32.835Z,4.68
2022-08-24T12:13:07.755Z,4.15
2022-08-24T12:15:51.795Z,3.63
2022-08-24T12:18:30.340Z,7.15
2022-08-24T12:21:00.577Z,4.32
2022-08-24T12:23:36.068Z,4.35
2022-08-24T12:26:10.214Z,4.57
2022-08-24T12:28:42.399Z,3.50
2022-08-24T12:31:20.336Z,3.72
2022-08-24T12:33:51.791Z,6.07
2022-08-24T12:36:27.032Z,3.70
2022-08-24T12:39:06.455Z,4.00
2022-08-24T12:41:38.852Z,3.03
2022-08-24T12:44:12.666Z,4.25
2022-08-24T12:46:43.240Z,3.00
2022-08-24T12:49:19.672Z,3.45
2022-08-24T12:54:49.458Z,2.03
2022-08-24T12:57:33.448Z,5.43
2022-08-24T13:00:09.735Z,5.68
2022-08-24T13:02:47.924Z,2.92
2022-08-24T13:05:21.227Z,4.43
2022-08-24T13:07:53.036Z,4.30
2022-08-24T13:10:40.324Z,4.85
2022-08-24T13:13:16.701Z,6.32
2022-08-24T13:15:56.320Z,4.07
2022-08-24T13:19:15.371Z,6.40
2022-08-24T13:21:57.296Z,4.82
2022-08-24T13:25:04.615Z,5.75
2022-08-24T13:28:05.958Z,5.75
2022-08-24T13:30:55.015Z,4.38
2022-08-24T13:33:31.626Z,3.88
2022-08-24T13:36:23.050Z,2.53
2022-08-24T13:39:04.172Z,4.50
2022-08-24T13:41:50.110Z,4.53
2022-08-24T13:44:34.673Z,4.20
2022-08-24T13:47:13.838Z,3.08
2022-08-24T13:50:01.888Z,4.38
2022-08-24T13:52:51.028Z,5.43
2022-08-24T13:55:45.151Z,4.13
2022-08-24T13:58:36.136Z,7.82
2022-08-24T14:01:19.685Z,6.03
2022-08-24T14:04:09.374Z,3.80
2022-08-24T14:06:50.857Z,2.80
2022-08-24T14:09:37.926Z,4.70
2022-08-24T14:12:17.917Z,6.45
2022-08-24T14:15:24.778Z,7.47
2022-08-24T14:18:05.338Z,4.03
2022-08-24T14:21:09.151Z,2.38
2022-08-24T14:23:59.878Z,3.10
2022-08-24T14:27:01.307Z,4.30
2022-08-24T14:29:49.787Z,4.13
2022-08-24T14:32:46.218Z,5.03
2022-08-24T14:35:34.414Z,5.45
2022-08-24T14:38:12.990Z,3.40
2022-08-24T14:41:00.018Z,5.75
2022-08-24T14:43:35.967Z,4.68
2022-08-24T14:46:13.464Z,6.60
2022-08-24T14:48:55.102Z,4.15
2022-08-24T14:51:48.304Z,3.05
2022-08-24T14:54:32.808Z,5.60
2022-08-24T14:57:18.431Z,5.38
2022-08-24T14:59:58.653Z,4.18
2022-08-24T15:03:06.495Z,4.20
2022-08-24T15:05:42.896Z,3.78
2022-08-24T15:08:16.290Z,4.65
2022-08-24T15:10:57.429Z,4.83
2022-08-24T15:13:30.010Z,5.88
2022-08-24T15:16:04.838Z,3.50
2022-08-24T15:18:39.738Z,4.55
2022-08-24T15:21:20.389Z,5.35
2022-08-24T15:24:01.758Z,4.68
2022-08-24T15:26:42.741Z,3.45
2022-08-24T15:29:16.392Z,4.45
2022-08-24T15:31:55.863Z,5.93
2022-08-24T15:34:36.268Z,4.70
2022-08-24T15:37:05.020Z,6.20
2022-08-24T15:39:34.445Z,7.55
2022-08-24T15:42:11.682Z,4.07
2022-08-24T15:44:42.491Z,4.28
2022-08-24T15:47:23.146Z,5.57
2022-08-24T15:49:56.682Z,8.77
2022-08-24T15:52:55.293Z,4.55
2022-08-24T15:55:38.071Z,5.45
2022-08-24T15:58:39.685Z,5.30
2022-08-24T16:01:40.654Z,7.28
2022-08-24T16:04:12.091Z,6.20
2022-08-24T16:06:45.199Z,4.25
2022-08-24T16:09:36.154Z,3.60
2022-08-24T16:12:08.008Z,6.32
2022-08-24T16:14:41.096Z,4.93
2022-08-24T16:17:31.488Z,5.53
2022-08-24T16:20:02.722Z,5.75
2022-08-24T16:22:36.473Z,11.90
2022-08-24T16:25:18.717Z,6.13
2022-08-24T16:28:01.551Z,8.02
2022-08-24T16:30:47.015Z,6.13
2022-08-24T16:33:43.798Z,7.38
2022-08-24T16:36:15.827Z,6.78
2022-08-24T16:38:49.055Z,8.90
2022-08-24T16:41:20.040Z,4.75
2022-08-24T16:43:48.889Z,6.80
2022-08-24T16:46:23.661Z,8.48
2022-08-24T16:48:54.264Z,7.15
2022-08-24T16:51:24.678Z,7.25
2022-08-24T16:53:53.981Z,15.05
2022-08-24T16:56:23.413Z,18.60
2022-08-24T16:58:52.918Z,11.95
2022-08-24T17:01:22.909Z,9.63
2022-08-24T17:03:52.237Z,17.75
2022-08-24T17:06:21.580Z,10.88
2022-08-24T17:08:50.248Z,19.42
2022-08-24T17:11:19.663Z,16.73
2022-08-24T17:13:50.581Z,11.93
2022-08-24T17:16:21.097Z,10.95
2022-08-24T17:18:51.457Z,12.45
2022-08-24T17:21:20.467Z,9.90
2022-08-24T17:23:49.402Z,12.25
2022-08-24T17:26:20.279Z,9.63
2022-08-24T17:28:52.520Z,16.35
2022-08-24T17:31:21.219Z,10.80
2022-08-24T17:33:51.288Z,12.15
2022-08-24T17:36:23.638Z,11.05
2022-08-24T17:38:56.036Z,11.82
2022-08-24T17:41:26.191Z,8.88
2022-08-24T17:43:55.914Z,10.00
2022-08-24T17:46:24.840Z,12.05
2022-08-24T17:48:54.834Z,11.82
2022-08-24T17:51:23.515Z,10.70
2022-08-24T17:53:51.939Z,17.23
2022-08-24T17:56:20.588Z,7.97
2022-08-24T17:59:06.280Z,11.40
2022-08-24T18:01:34.963Z,8.10
2022-08-24T18:04:05.799Z,10.88
2022-08-24T18:06:35.235Z,9.15
2022-08-24T18:09:08.254Z,15.05
2022-08-24T18:11:36.684Z,10.60
2022-08-24T18:14:05.221Z,8.82
2022-08-24T18:16:33.714Z,10.85
2022-08-24T18:19:02.401Z,11.40
2022-08-24T18:21:32.222Z,13.15
2022-08-24T18:24:01.561Z,15.48
2022-08-24T18:26:31.987Z,16.70
2022-08-24T18:29:09.167Z,12.25
2022-08-24T18:31:37.838Z,12.63
2022-08-24T18:34:06.729Z,11.80
2022-08-24T18:36:36.637Z,11.40
2022-08-24T18:39:07.309Z,11.68
2022-08-24T18:41:40.767Z,16.48
2022-08-24T18:44:13.455Z,11.45
2022-08-24T18:46:44.023Z,13.50
2022-08-24T18:49:12.563Z,13.13
2022-08-24T18:51:43.046Z,14.77
2022-08-24T18:54:14.373Z,17.33
2022-08-24T18:56:42.789Z,14.80
2022-08-24T18:59:14.652Z,15.10
2022-08-24T19:02:01.673Z,14.57
2022-08-24T19:04:33.014Z,15.93
2022-08-24T19:07:03.436Z,15.75
2022-08-24T19:09:34.314Z,15.10
2022-08-24T19:12:04.250Z,14.98
2022-08-24T19:14:32.809Z,15.75
2022-08-24T19:17:01.272Z,12.73
2022-08-24T19:19:30.036Z,14.48
2022-08-24T19:21:58.567Z,11.10
2022-08-24T19:24:30.245Z,11.73
2022-08-24T19:27:01.245Z,13.07
2022-08-24T19:29:54.710Z,14.20
2022-08-24T19:32:23.949Z,20.00
2022-08-24T19:34:53.096Z,11.35
2022-08-24T19:37:23.594Z,17.30
2022-08-24T19:39:53.541Z,13.05
2022-08-24T19:42:23.596Z,13.20
2022-08-24T19:45:11.791Z,15.55
2022-08-24T19:47:40.892Z,12.75
2022-08-24T19:50:10.722Z,11.38
2022-08-24T19:52:40.820Z,13.52
2022-08-24T19:55:13.063Z,16.17
2022-08-24T19:57:50.659Z,14.20
2022-08-24T20:00:29.386Z,17.63
2022-08-24T20:03:00.855Z,12.68
2022-08-24T20:05:29.925Z,11.40
2022-08-24T20:08:00.182Z,13.02
2022-08-24T20:10:30.296Z,13.95
2022-08-24T20:12:59.144Z,12.20
2022-08-24T20:15:27.838Z,20.25
2022-08-24T20:17:58.193Z,13.43
2022-08-24T20:20:28.485Z,17.92
2022-08-24T20:22:56.966Z,15.60
2022-08-24T20:25:25.413Z,20.73
2022-08-24T20:28:18.540Z,19.38
2022-08-24T20:30:45.512Z,14.40
2022-08-24T20:33:17.018Z,13.23
2022-08-24T20:35:46.909Z,15.55
2022-08-24T20:38:17.990Z,14.98
2022-08-24T20:40:47.083Z,11.35
2022-08-24T20:43:17.033Z,14.50
2022-08-24T20:45:45.665Z,14.82
2022-08-24T20:48:15.254Z,14.27
2022-08-24T20:50:44.366Z,15.15
2022-08-24T20:53:13.442Z,16.65
2022-08-24T20:55:42.582Z,16.55
2022-08-24T20:58:11.602Z,17.85
2022-08-24T21:00:44.524Z,16.77
2022-08-24T21:03:16.183Z,14.98
2022-08-24T21:05:45.079Z,17.92
2022-08-24T21:08:15.098Z,16.50
2022-08-24T21:10:43.836Z,17.95
2022-08-24T21:13:12.462Z,19.67
2022-08-24T21:15:42.658Z,15.88
2022-08-24T21:18:11.518Z,21.38
2022-08-24T21:20:44.810Z,19.23
2022-08-24T21:23:31.016Z,20.73
2022-08-24T21:26:00.473Z,20.23
2022-08-24T21:28:29.180Z,20.27
2022-08-24T21:31:02.485Z,22.55
2022-08-24T21:34:05.839Z,19.63
2022-08-24T21:36:34.322Z,19.42
2022-08-24T21:39:05.492Z,17.58
2022-08-24T21:41:37.540Z,12.85
2022-08-24T21:44:06.070Z,18.40
2022-08-24T21:46:39.023Z,18.88
2022-08-24T21:49:12.044Z,19.15
2022-08-24T21:51:40.982Z,16.52
2022-08-24T21:54:09.783Z,13.68
2022-08-24T21:56:38.441Z,16.95
2022-08-24T21:59:07.314Z,14.68
2022-08-24T22:01:38.770Z,14.20
2022-08-24T22:04:08.212Z,12.05
2022-08-24T22:06:37.049Z,12.90
2022-08-24T22:09:06.162Z,17.35
2022-08-24T22:11:34.791Z,13.50
2022-08-24T22:14:04.657Z,13.18
2022-08-24T22:16:33.398Z,14.35
2022-08-24T22:19:07.434Z,15.50
2022-08-24T22:21:36.564Z,14.38
2022-08-24T22:24:05.383Z,15.63
2022-08-24T22:26:34.110Z,16.48
2022-08-24T22:29:03.796Z,12.88
2022-08-24T22:31:35.217Z,11.60
2022-08-24T22:34:07.543Z,15.00
2022-08-24T22:36:36.160Z,12.68
2022-08-24T22:39:06.210Z,16.88
2022-08-24T22:41:35.000Z,13.15
2022-08-24T22:44:22.546Z,17.23
2022-08-24T22:46:53.367Z,14.32
2022-08-24T22:49:26.120Z,17.63
2022-08-24T22:51:54.774Z,16.17
2022-08-24T22:54:25.582Z,14.48
2022-08-24T22:56:56.761Z,15.82
2022-08-24T22:59:28.640Z,12.52
2022-08-24T23:01:58.732Z,16.02
2022-08-24T23:04:32.160Z,10.73
2022-08-24T23:07:00.782Z,15.13
2022-08-24T23:09:32.038Z,13.50
2022-08-24T23:12:14.232Z,17.45
2022-08-24T23:14:43.601Z,14.82
2022-08-24T23:17:12.779Z,13.57
2022-08-24T23:19:59.883Z,16.00
2022-08-24T23:24:57.897Z,17.70
2022-08-24T23:27:27.806Z,17.02
2022-08-24T23:30:06.472Z,16.45
2022-08-24T23:32:34.927Z,12.90
2022-08-24T23:35:05.383Z,13.38
2022-08-24T23:37:33.906Z,14.15
2022-08-24T23:40:03.170Z,16.25
2022-08-24T23:42:32.341Z,19.48
2022-08-24T23:45:00.758Z,15.85
2022-08-24T23:47:33.868Z,18.40
2022-08-24T23:50:11.369Z,16.80
2022-08-24T23:52:40.993Z,13.63
2022-08-24T23:55:21.479Z,16.02
2022-08-24T23:57:51.783Z,18.73
